Time;durP1;ratioP1;P1;durP2;ratioP2;P2;SDS_P1;SDS_P2;PMS_P1;PMS_P2;Temp;Humidity;BMP_temperature;BMP_pressure;BME280_temperature;BME280_humidity;BME280_pressure;Samples;Min_cycle;Max_cycle;Signal;HPM_P1;HPM_P2
2023/07/16 00:01:36;;;;;;;5.50;4.80;;;;;;;22.84;54.45;100212.83;104422;280;113745;-53
2023/07/16 00:04:10;;;;;;;6.40;4.30;;;;;;;22.83;54.45;100214.05;104007;280;94648;-53
2023/07/16 00:06:44;;;;;;;5.70;5.10;;;;;;;22.78;54.67;100215.02;103996;279;98050;-53
2023/07/16 00:09:19;;;;;;;5.80;5.00;;;;;;;22.74;54.69;100209.80;103986;280;120530;-53
2023/07/16 00:11:53;;;;;;;5.70;5.20;;;;;;;22.70;54.78;100208.14;103975;280;104759;-53
2023/07/16 00:14:25;;;;;;;;;;;;;;;22.65;54.93;100203.00;104000;280;115039;-53
2023/07/16 00:17:02;;;;;;;6.10;4.70;;;;;;;22.60;55.11;100201.59;103978;280;94310;-53
2023/07/16 00:19:36;;;;;;;6.30;5.40;;;;;;;22.54;55.15;100203.39;103935;278;98152;-54
2023/07/16 00:22:10;;;;;;;5.30;4.80;;;;;;;22.49;55.25;100201.45;104120;278;120191;-53
2023/07/16 00:24:42;;;;;;;;;;;;;;;22.44;55.38;100201.27;104141;278;105659;-53
2023/07/16 00:27:17;;;;;;;5.60;4.80;;;;;;;22.39;55.49;100197.64;104563;278;113507;-53
2023/07/16 00:29:52;;;;;;;6.20;4.90;;;;;;;22.38;55.63;100196.64;104578;278;94196;-54
2023/07/16 00:32:26;;;;;;;6.50;4.90;;;;;;;22.36;55.82;100200.21;104160;278;98047;-53
2023/07/16 00:34:58;;;;;;;;;;;;;;;22.33;55.98;100200.32;104602;278;121525;-53
2023/07/16 00:37:32;;;;;;;5.70;5.10;;;;;;;22.28;56.04;100199.20;104606;278;104584;-53
2023/07/16 00:40:06;;;;;;;;;;;;;;;22.23;56.02;100197.53;103964;279;115990;-53
2023/07/16 00:42:41;;;;;;;6.80;4.90;;;;;;;22.17;56.23;100198.67;104117;278;94530;-54
2023/07/16 00:45:15;;;;;;;;;;;;;;;22.14;56.50;100197.29;103941;280;99614;-54
2023/07/16 00:47:49;;;;;;;5.50;5.00;;;;;;;22.09;56.57;100197.21;104108;294;119864;-54
2023/07/16 00:50:23;;;;;;;6.10;4.90;;;;;;;22.08;56.72;100199.20;104128;278;106051;-54
2023/07/16 00:52:56;;;;;;;;;;;;;;;22.06;56.91;100200.95;104118;278;114748;-54
2023/07/16 00:55:32;;;;;;;6.30;5.20;;;;;;;22.03;56.99;100204.90;104131;278;94123;-54
2023/07/16 00:58:08;;;;;;;5.60;5.00;;;;;;;22.04;57.13;100200.22;104105;278;95534;-54
2023/07/16 01:00:43;;;;;;;6.70;5.30;;;;;;;22.03;57.30;100197.87;104126;278;120056;-53
2023/07/16 01:03:18;;;;;;;7.20;5.60;;;;;;;22.02;57.51;100195.66;104134;278;106503;-53
2023/07/16 01:06:00;;;;;;;5.90;5.10;;;;;;;22.03;57.62;100192.73;104088;278;114097;-54
2023/07/16 01:08:42;;;;;;;6.00;5.20;;;;;;;22.03;57.61;100184.86;104118;278;94711;-54
2023/07/16 01:11:16;;;;;;;7.40;5.20;;;;;;;22.03;57.75;100181.29;104123;278;96498;-54
2023/07/16 01:13:51;;;;;;;6.80;5.40;;;;;;;22.03;57.84;100178.20;104130;278;119063;-54
2023/07/16 01:16:26;;;;;;;7.60;5.50;;;;;;;22.03;58.01;100173.91;104166;278;105999;-54
2023/07/16 01:19:01;;;;;;;6.90;6.10;;;;;;;22.00;58.05;100174.23;104545;278;113820;-54
2023/07/16 01:21:44;;;;;;;6.20;5.60;;;;;;;21.98;58.15;100173.02;104117;278;93724;-55
2023/07/16 01:24:53;;;;;;;8.20;5.40;;;;;;;21.96;58.34;100168.17;104147;278;96675;-55
2023/07/16 01:27:59;;;;;;;6.20;5.60;;;;;;;21.94;58.62;100162.00;104108;278;119873;-55
2023/07/16 01:30:34;;;;;;;6.10;5.50;;;;;;;21.93;58.57;100158.85;104109;278;105958;-55
2023/07/16 01:33:10;;;;;;;6.30;5.60;;;;;;;21.90;58.76;100162.02;104095;279;114656;-56
2023/07/16 01:35:46;;;;;;;6.80;5.60;;;;;;;21.90;58.80;100160.44;104111;278;93556;-54
2023/07/16 01:38:21;;;;;;;6.90;5.20;;;;;;;21.91;58.97;100162.70;104551;278;96682;-54
2023/07/16 01:40:55;;;;;;;5.90;5.30;;;;;;;21.88;58.97;100160.21;104113;278;121450;-54
2023/07/16 01:43:29;;;;;;;6.30;5.40;;;;;;;21.87;59.23;100159.36;104534;278;104532;-54
2023/07/16 01:46:01;;;;;;;;;;;;;;;21.84;59.09;100161.72;104555;278;113721;-54
2023/07/16 01:48:38;;;;;;;5.60;5.00;;;;;;;21.80;59.29;100157.95;104110;278;93469;-54
2023/07/16 01:51:13;;;;;;;6.70;5.60;;;;;;;21.79;59.53;100157.00;104576;278;96190;-55
2023/07/16 01:53:47;;;;;;;7.50;5.80;;;;;;;21.77;59.49;100155.96;104130;278;121265;-55
2023/07/16 01:56:20;;;;;;;;;;;;;;;21.75;59.58;100154.73;104124;278;106074;-54
2023/07/16 01:58:55;;;;;;;6.30;5.70;;;;;;;21.74;59.97;100154.58;104106;278;112787;-54
2023/07/16 02:01:29;;;;;;;6.40;5.70;;;;;;;21.73;59.94;100149.52;104146;278;93444;-54
2023/07/16 02:04:03;;;;;;;7.80;6.50;;;;;;;21.72;60.17;100150.98;104616;278;95669;-54
2023/07/16 02:06:37;;;;;;;7.00;5.30;;;;;;;21.70;60.12;100150.43;104112;278;120468;-54
2023/07/16 02:09:12;;;;;;;6.50;5.90;;;;;;;21.69;60.22;100148.16;104130;278;105311;-54
2023/07/16 02:11:46;;;;;;;8.80;5.90;;;;;;;21.67;60.38;100147.55;104115;278;112403;-54
2023/07/16 02:14:20;;;;;;;6.10;5.50;;;;;;;21.63;60.40;100143.79;104111;278;93833;-54
2023/07/16 02:16:55;;;;;;;8.30;6.20;;;;;;;21.61;60.51;100143.45;104123;278;97113;-55
2023/07/16 02:19:29;;;;;;;6.50;5.70;;;;;;;21.57;60.68;100142.71;104086;278;119695;-55
2023/07/16 02:22:04;;;;;;;6.70;5.90;;;;;;;21.53;60.75;100140.77;104154;278;105137;-54
2023/07/16 02:24:38;;;;;;;6.30;5.70;;;;;;;21.52;60.91;100138.19;104087;278;114314;-54
2023/07/16 02:27:10;;;;;;;;;;;;;;;21.54;61.21;100137.27;104085;278;96335;-54
2023/07/16 02:29:45;;;;;;;6.80;5.80;;;;;;;21.53;61.24;100136.21;104543;277;96218;-54
2023/07/16 02:32:19;;;;;;;8.10;6.00;;;;;;;21.55;61.39;100138.59;104115;277;119694;-53
2023/07/16 02:34:53;;;;;;;7.40;5.70;;;;;;;21.58;61.42;100135.30;104568;278;105229;-54
2023/07/16 02:37:26;;;;;;;;;;;;;;;21.61;61.63;100137.19;104559;278;112207;-54
2023/07/16 02:40:00;;;;;;;6.80;5.50;;;;;;;21.62;61.50;100139.45;104566;279;94070;-53
2023/07/16 02:42:32;;;;;;;;;;;;;;;21.61;61.56;100133.34;104600;279;98154;-53
2023/07/16 02:45:08;;;;;;;6.30;5.40;;;;;;;21.61;61.69;100131.30;104590;278;120734;-55
2023/07/16 02:47:42;;;;;;;8.60;6.30;;;;;;;21.60;61.86;100131.86;104150;278;104935;-55
2023/07/16 02:50:17;;;;;;;7.00;6.40;;;;;;;21.59;61.91;100129.87;103968;278;113502;-55
2023/07/16 02:52:51;;;;;;;7.10;6.40;;;;;;;21.60;61.91;100135.25;104110;278;94899;-55
2023/07/16 02:55:24;;;;;;;;;;;;;;;21.59;61.91;100136.69;104112;278;97616;-53
2023/07/16 02:57:58;;;;;;;7.10;6.20;;;;;;;21.56;62.10;100135.73;104106;279;120059;-54
2023/07/16 03:00:33;;;;;;;7.60;6.00;;;;;;;21.55;62.26;100138.36;104121;278;104614;-54
2023/07/16 03:03:07;;;;;;;8.20;6.00;;;;;;;21.57;62.61;100134.91;104101;278;113681;-54
2023/07/16 03:05:39;;;;;;;;;;;;;;;21.59;62.53;100133.98;104102;278;96668;-55
2023/07/16 03:08:14;;;;;;;6.20;5.60;;;;;;;21.63;62.68;100132.19;104103;278;97475;-55
2023/07/16 03:10:48;;;;;;;7.10;6.40;;;;;;;21.67;62.66;100132.04;104111;278;120619;-55
2023/07/16 03:13:22;;;;;;;6.90;5.70;;;;;;;21.70;62.75;100132.92;104524;278;104490;-55
2023/07/16 03:15:55;;;;;;;;;;;;;;;21.75;62.59;100136.64;104101;278;114617;-53
2023/07/16 03:18:33;;;;;;;7.20;6.10;;;;;;;21.80;62.85;100138.75;104090;278;92907;-53
2023/07/16 03:21:08;;;;;;;8.50;6.90;;;;;;;21.86;62.86;100142.98;104558;282;96204;-53
2023/07/16 03:23:42;;;;;;;7.00;6.00;;;;;;;21.92;62.88;100151.42;104138;278;120761;-54
2023/07/16 03:26:16;;;;;;;7.60;6.10;;;;;;;21.95;62.85;100153.14;104155;278;103605;-54
2023/07/16 03:28:48;;;;;;;;;;;;;;;21.99;62.93;100153.10;104113;278;114312;-54
2023/07/16 03:31:22;;;;;;;10.00;6.50;;;;;;;22.03;62.88;100155.31;104121;278;93738;-54
2023/07/16 03:33:56;;;;;;;7.30;6.40;;;;;;;22.07;62.94;100160.77;104105;279;98042;-54
2023/07/16 03:36:29;;;;;;;;;;;;;;;22.13;63.03;100161.17;104160;278;120603;-54
2023/07/16 03:39:04;;;;;;;6.60;6.00;;;;;;;22.28;62.99;100160.12;104145;278;105955;-54
2023/07/16 03:41:38;;;;;;;6.60;6.00;;;;;;;23.38;61.80;100153.30;104580;278;114927;-53
2023/07/16 03:44:11;;;;;;;;;;;;;;;24.90;60.27;100155.41;104139;278;93898;-53
2023/07/16 03:46:45;;;;;;;6.90;6.20;;;;;;;26.25;58.46;100150.41;103979;279;97346;-54
2023/07/16 03:49:21;;;;;;;6.30;5.60;;;;;;;27.41;56.63;100153.54;104110;278;119608;-55
2023/07/16 03:51:56;;;;;;;6.50;6.00;;;;;;;28.55;54.76;100157.48;104110;278;104323;-53
2023/07/16 03:54:30;;;;;;;6.90;5.80;;;;;;;29.50;52.85;100153.13;103944;279;116214;-53
2023/07/16 03:57:06;;;;;;;6.60;5.60;;;;;;;30.25;51.11;100152.03;104096;278;93520;-54
2023/07/16 03:59:40;;;;;;;5.70;5.20;;;;;;;30.91;49.52;100154.12;104541;278;97191;-54
2023/07/16 04:02:14;;;;;;;6.60;5.60;;;;;;;31.45;47.51;100154.05;104568;278;119842;-55
2023/07/16 04:04:48;;;;;;;6.90;6.10;;;;;;;31.77;46.59;100150.02;104118;278;105832;-55
2023/07/16 04:07:22;;;;;;;8.10;5.30;;;;;;;32.21;45.77;100150.15;104088;278;114765;-55
2023/07/16 04:09:55;;;;;;;5.70;5.20;;;;;;;32.86;44.34;100148.70;104113;278;95070;-54
2023/07/16 04:12:29;;;;;;;5.60;5.10;;;;;;;33.35;43.38;100142.42;104581;278;98487;-54
2023/07/16 04:15:08;;;;;;;5.90;5.40;;;;;;;33.77;42.48;100145.69;104581;278;119817;-54
2023/07/16 04:17:42;;;;;;;6.30;5.40;;;;;;;34.25;41.40;100143.27;104104;278;105005;-54
2023/07/16 04:20:16;;;;;;;6.50;5.00;;;;;;;34.67;40.29;100138.76;104096;278;114586;-55
2023/07/16 04:22:50;;;;;;;6.10;5.60;;;;;;;34.14;39.86;100141.30;104605;278;93951;-55
2023/07/16 04:25:24;;;;;;;6.60;5.30;;;;;;;32.36;40.61;100143.17;104147;278;98109;-56
2023/07/16 04:27:58;;;;;;;6.00;5.20;;;;;;;31.07;41.52;100141.50;104548;278;121308;-56
2023/07/16 04:30:33;;;;;;;5.60;5.10;;;;;;;29.92;42.77;100149.31;104146;278;103560;-54
2023/07/16 04:33:07;;;;;;;7.90;5.90;;;;;;;29.25;43.87;100150.31;104119;278;114586;-54
2023/07/16 04:35:41;;;;;;;5.90;5.40;;;;;;;28.76;44.65;100152.61;104114;278;95333;-55
2023/07/16 04:38:15;;;;;;;7.80;5.30;;;;;;;28.27;45.52;100155.40;103935;279;98032;-55
2023/07/16 04:40:49;;;;;;;6.00;5.40;;;;;;;27.86;46.36;100150.77;104104;278;120778;-55
2023/07/16 04:43:23;;;;;;;6.70;6.00;;;;;;;27.63;46.94;100154.06;104537;278;104857;-55
2023/07/16 04:45:57;;;;;;;6.80;5.60;;;;;;;27.57;47.69;100152.75;104093;278;114237;-54
2023/07/16 04:48:31;;;;;;;6.70;6.10;;;;;;;27.41;48.13;100156.60;104078;278;93916;-53
2023/07/16 04:51:05;;;;;;;7.00;5.60;;;;;;;27.42;48.48;100154.13;104584;278;97149;-54
2023/07/16 04:53:39;;;;;;;6.40;5.80;;;;;;;27.51;48.58;100154.91;103927;279;120738;-54
2023/07/16 04:56:17;;;;;;;7.00;6.30;;;;;;;27.47;48.88;100155.80;104126;278;104426;-53
2023/07/16 04:58:52;;;;;;;6.30;5.80;;;;;;;28.08;48.86;100157.29;104098;278;115300;-54
2023/07/16 05:01:26;;;;;;;6.70;5.90;;;;;;;29.97;47.68;100156.49;104111;278;95005;-55
2023/07/16 05:04:00;;;;;;;6.50;5.90;;;;;;;32.17;45.53;100151.84;104563;278;96973;-56
2023/07/16 05:06:34;;;;;;;6.70;5.30;;;;;;;33.79;43.24;100159.20;104145;278;119903;-55
2023/07/16 05:09:08;;;;;;;5.70;5.20;;;;;;;34.98;41.59;100157.92;104124;278;105342;-55
2023/07/16 05:11:42;;;;;;;5.80;5.30;;;;;;;35.95;39.83;100153.73;104127;278;114705;-54
2023/07/16 05:14:16;;;;;;;6.30;5.50;;;;;;;36.85;38.62;100149.86;104127;278;94074;-54
2023/07/16 05:16:50;;;;;;;5.30;4.80;;;;;;;37.48;36.83;100150.08;103959;279;98351;-56
2023/07/16 05:19:24;;;;;;;5.90;4.90;;;;;;;38.05;35.53;100148.33;103620;278;687032;-57
2023/07/16 05:21:58;;;;;;;4.90;4.50;;;;;;;38.15;34.92;100148.10;104578;278;104155;-56
2023/07/16 05:24:34;;;;;;;6.60;5.10;;;;;;;38.57;34.04;100149.75;104117;278;114799;-56
2023/07/16 05:27:08;;;;;;;5.00;4.40;;;;;;;38.80;33.39;100142.27;104104;278;95053;-56
2023/07/16 05:29:43;;;;;;;5.40;4.90;;;;;;;39.40;33.07;100142.52;104125;278;97899;-55
2023/07/16 05:32:17;;;;;;;4.90;4.40;;;;;;;39.96;32.49;100141.69;103947;278;120424;-56
2023/07/16 05:34:51;;;;;;;5.10;4.70;;;;;;;40.32;31.29;100139.60;104146;278;104870;-55
2023/07/16 05:37:25;;;;;;;5.60;5.00;;;;;;;40.23;31.02;100134.36;104083;278;113284;-55
2023/07/16 05:39:59;;;;;;;6.60;4.70;;;;;;;40.73;30.50;100132.31;104122;278;93595;-56
2023/07/16 05:42:33;;;;;;;6.00;4.50;;;;;;;41.00;29.67;100132.74;104123;278;98495;-56
2023/07/16 05:45:09;;;;;;;5.30;4.90;;;;;;;41.06;29.30;100129.86;104137;278;120914;-54
2023/07/16 05:47:43;;;;;;;5.40;4.60;;;;;;;41.04;29.12;100134.38;103953;279;104960;-54
2023/07/16 05:50:18;;;;;;;5.00;4.50;;;;;;;41.33;28.69;100134.46;104146;279;113922;-56
2023/07/16 05:52:52;;;;;;;7.20;4.80;;;;;;;41.44;28.72;100134.89;104100;278;93782;-56
2023/07/16 05:55:26;;;;;;;5.20;4.60;;;;;;;41.75;28.06;100143.11;104127;278;97211;-54
2023/07/16 05:58:01;;;;;;;5.40;4.80;;;;;;;41.70;27.84;100152.77;104139;278;118817;-54
2023/07/16 06:00:35;;;;;;;5.00;4.60;;;;;;;42.03;27.73;100156.48;104111;278;105435;-54
2023/07/16 06:03:09;;;;;;;4.60;4.20;;;;;;;42.27;27.53;100160.69;104109;278;113812;-54
2023/07/16 06:05:45;;;;;;;4.50;4.20;;;;;;;42.77;26.98;100161.95;104089;278;94478;-56
2023/07/16 06:08:20;;;;;;;6.70;4.50;;;;;;;42.89;26.59;100164.41;104157;278;97629;-56
2023/07/16 06:10:54;;;;;;;6.20;4.70;;;;;;;42.89;26.63;100162.79;104555;278;120789;-56
2023/07/16 06:13:28;;;;;;;5.20;4.70;;;;;;;43.18;26.39;100158.85;104093;278;105540;-56
2023/07/16 06:16:02;;;;;;;5.20;4.40;;;;;;;43.35;26.11;100152.56;104102;278;114275;-56
2023/07/16 06:18:36;;;;;;;4.90;4.50;;;;;;;43.69;25.43;100152.17;104111;278;93946;-56
2023/07/16 06:21:15;;;;;;;5.00;4.60;;;;;;;43.89;25.12;100148.35;104113;277;96397;-56
2023/07/16 06:23:49;;;;;;;6.80;4.70;;;;;;;44.00;25.02;100152.08;104111;278;119048;-56
2023/07/16 06:26:23;;;;;;;5.30;4.80;;;;;;;44.32;25.02;100155.05;103974;279;107891;-56
2023/07/16 06:28:57;;;;;;;4.60;4.20;;;;;;;44.68;24.42;100157.00;104108;278;113405;-56
2023/07/16 06:31:31;;;;;;;5.40;4.30;;;;;;;45.05;24.54;100152.30;104587;278;92939;-56
2023/07/16 06:34:06;;;;;;;4.60;4.30;;;;;;;45.28;24.10;100158.68;104125;278;96418;-63
2023/07/16 06:36:42;;;;;;;5.00;4.50;;;;;;;45.51;23.82;100166.88;103974;279;122875;-56
2023/07/16 06:39:16;;;;;;;4.80;4.30;;;;;;;45.63;23.60;100167.75;104573;278;105373;-56
2023/07/16 06:41:50;;;;;;;6.30;4.80;;;;;;;45.62;23.22;100175.11;104099;278;113966;-55
2023/07/16 06:44:24;;;;;;;4.90;4.50;;;;;;;45.44;23.22;100179.39;104102;282;94234;-55
2023/07/16 06:46:58;;;;;;;5.00;4.40;;;;;;;45.64;22.92;100176.89;104134;278;96496;-55
2023/07/16 06:49:34;;;;;;;5.10;4.60;;;;;;;45.86;22.65;100180.21;104087;278;120610;-55
2023/07/16 06:52:19;;;;;;;4.90;4.50;;;;;;;45.84;22.58;100188.31;104098;278;105407;-55
2023/07/16 06:54:53;;;;;;;4.70;4.30;;;;;;;45.43;22.86;100188.45;104108;278;114882;-56
2023/07/16 06:57:27;;;;;;;4.80;4.40;;;;;;;45.64;22.98;100190.36;104119;278;93113;-56
2023/07/16 07:00:01;;;;;;;5.10;4.70;;;;;;;45.75;22.83;100191.30;104135;278;96147;-56
2023/07/16 07:02:38;;;;;;;4.50;4.20;;;;;;;46.03;22.56;100192.83;104118;278;120997;-57
2023/07/16 07:05:13;;;;;;;6.00;5.10;;;;;;;46.00;22.29;100195.73;104120;278;105448;-56
2023/07/16 07:07:48;;;;;;;5.40;4.90;;;;;;;46.06;22.30;100192.04;104547;278;113381;-56
2023/07/16 07:10:23;;;;;;;4.70;4.30;;;;;;;46.10;22.02;100190.42;104100;278;95095;-55
2023/07/16 07:12:58;;;;;;;4.80;4.30;;;;;;;45.78;22.36;100191.20;104128;278;96576;-55
2023/07/16 07:15:34;;;;;;;5.20;4.80;;;;;;;45.88;22.43;100185.57;104106;278;121581;-54
2023/07/16 07:18:09;;;;;;;5.10;4.70;;;;;;;45.86;22.16;100188.69;103987;278;107044;-54
2023/07/16 07:20:43;;;;;;;5.30;4.70;;;;;;;45.88;22.51;100191.93;104249;277;114900;-55
2023/07/16 07:23:19;;;;;;;5.40;4.60;;;;;;;45.93;22.22;100196.40;104786;277;92514;-54
2023/07/16 07:25:55;;;;;;;5.40;4.90;;;;;;;46.20;22.15;100199.05;104345;277;97018;-54
2023/07/16 07:28:30;;;;;;;5.30;4.80;;;;;;;46.24;21.76;100200.04;104313;277;121091;-56
2023/07/16 07:31:05;;;;;;;4.70;4.30;;;;;;;45.90;21.94;100197.61;104349;277;106435;-56
2023/07/16 07:33:41;;;;;;;5.10;4.60;;;;;;;45.94;22.01;100192.23;104310;277;115080;-55
2023/07/16 07:36:18;;;;;;;5.80;4.30;;;;;;;46.06;22.16;100183.79;104305;277;93137;-53
2023/07/16 07:38:55;;;;;;;4.50;4.10;;;;;;;46.09;22.08;100175.66;104361;277;95289;-53
2023/07/16 07:41:30;;;;;;;4.90;4.50;;;;;;;46.12;21.87;100161.23;104762;277;120010;-55
2023/07/16 07:44:06;;;;;;;5.90;4.50;;;;;;;46.12;22.01;100158.88;104339;277;104145;-56
2023/07/16 07:46:41;;;;;;;4.60;4.20;;;;;;;46.28;21.81;100165.92;104313;277;113401;-55
2023/07/16 07:49:16;;;;;;;4.30;4.00;;;;;;;46.35;21.99;100162.27;104146;278;93676;-55
2023/07/16 07:51:50;;;;;;;4.60;4.20;;;;;;;46.11;22.00;100162.24;104315;277;96655;-56
2023/07/16 07:54:24;;;;;;;4.60;4.30;;;;;;;45.99;21.92;100159.52;104293;277;121050;-55
2023/07/16 07:57:01;;;;;;;4.40;4.10;;;;;;;46.09;21.95;100156.96;104314;277;105507;-56
2023/07/16 07:59:36;;;;;;;4.50;4.00;;;;;;;46.38;21.98;100154.98;104304;277;114773;-55
2023/07/16 08:02:10;;;;;;;4.20;3.90;;;;;;;46.54;21.96;100154.65;104763;277;92528;-56
2023/07/16 08:04:46;;;;;;;4.50;4.10;;;;;;;46.63;21.94;100156.99;104790;277;96946;-54
2023/07/16 08:07:21;;;;;;;5.00;4.30;;;;;;;46.65;21.49;100153.86;104322;277;119727;-56
2023/07/16 08:09:55;;;;;;;5.00;4.60;;;;;;;46.76;21.48;100154.05;104334;277;103434;-55
2023/07/16 08:12:33;;;;;;;6.10;4.40;;;;;;;46.76;21.40;100150.69;104349;277;114584;-55
2023/07/16 08:15:13;;;;;;;5.00;4.60;;;;;;;46.65;21.48;100147.31;104340;277;94681;-55
2023/07/16 08:17:49;;;;;;;5.00;4.50;;;;;;;46.73;21.44;100141.59;104193;277;97170;-55
2023/07/16 08:20:23;;;;;;;4.60;4.00;;;;;;;46.92;21.39;100137.04;104317;277;120605;-54
2023/07/16 08:22:58;;;;;;;4.80;4.40;;;;;;;47.12;20.99;100133.23;104737;277;105253;-54
2023/07/16 08:25:32;;;;;;;4.90;4.50;;;;;;;47.03;20.80;100127.30;104311;276;114105;-54
2023/07/16 08:28:07;;;;;;;4.60;4.30;;;;;;;47.06;21.17;100123.02;104297;277;92576;-54
2023/07/16 08:30:41;;;;;;;5.00;4.50;;;;;;;47.29;20.90;100121.73;104329;277;96332;-54
2023/07/16 08:33:15;;;;;;;5.10;4.60;;;;;;;47.33;20.65;100121.30;104276;277;121445;-54
2023/07/16 08:35:49;;;;;;;4.70;4.30;;;;;;;47.18;20.55;100125.02;104338;277;105618;-53
2023/07/16 08:38:23;;;;;;;5.00;4.60;;;;;;;46.95;20.51;100125.61;104730;276;113516;-53
2023/07/16 08:40:58;;;;;;;4.50;4.00;;;;;;;46.93;20.67;100123.61;104773;277;94273;-54
2023/07/16 08:43:34;;;;;;;4.80;4.30;;;;;;;47.16;20.81;100117.79;104341;277;97049;-54
2023/07/16 08:46:08;;;;;;;4.50;4.10;;;;;;;47.13;20.15;100125.29;104758;277;121255;-56
2023/07/16 08:48:43;;;;;;;3.70;3.40;;;;;;;46.70;20.09;100117.07;104302;277;105417;-56
2023/07/16 08:51:19;;;;;;;3.80;3.50;;;;;;;46.23;20.33;100121.12;104344;277;112859;-55
2023/07/16 08:53:53;;;;;;;4.50;4.10;;;;;;;46.23;20.90;100118.09;104324;276;94031;-55
2023/07/16 08:56:27;;;;;;;4.60;4.20;;;;;;;46.45;20.58;100126.23;104349;277;96627;-54
2023/07/16 08:59:02;;;;;;;4.50;4.10;;;;;;;46.35;20.59;100121.14;104774;277;120194;-53
2023/07/16 09:01:37;;;;;;;4.50;3.50;;;;;;;46.10;20.43;100125.20;104744;277;106278;-53
2023/07/16 09:04:11;;;;;;;4.40;4.00;;;;;;;45.91;20.65;100114.83;104731;277;114341;-53
2023/07/16 09:06:45;;;;;;;4.00;3.60;;;;;;;45.23;20.87;100112.17;104305;277;93623;-53
2023/07/16 09:09:26;;;;;;;4.30;3.90;;;;;;;44.73;21.35;100115.06;104347;277;97616;-53
2023/07/16 09:12:01;;;;;;;8.50;4.60;;;;;;;43.83;21.76;100123.19;104290;277;120717;-55
2023/07/16 09:14:36;;;;;;;4.30;3.80;;;;;;;42.81;22.05;100123.52;104280;277;106003;-54
2023/07/16 09:17:10;;;;;;;4.30;3.80;;;;;;;42.39;22.82;100112.70;104311;277;115271;-55
2023/07/16 09:19:48;;;;;;;7.20;4.50;;;;;;;42.10;23.13;100114.95;104725;277;94036;-53
2023/07/16 09:22:23;;;;;;;4.90;4.30;;;;;;;41.91;23.83;100112.05;104300;277;96344;-53
2023/07/16 09:24:58;;;;;;;4.60;4.10;;;;;;;41.56;24.05;100110.67;104263;276;120911;-54
2023/07/16 09:27:34;;;;;;;4.30;3.90;;;;;;;41.11;24.56;100104.75;104314;277;106342;-54
2023/07/16 09:30:16;;;;;;;4.80;4.30;;;;;;;40.69;24.65;100103.23;104745;277;112699;-54
2023/07/16 09:32:52;;;;;;;4.20;3.80;;;;;;;40.16;25.19;100099.36;104313;277;94333;-53
2023/07/16 09:35:27;;;;;;;4.80;4.30;;;;;;;39.77;25.84;100096.98;104310;276;97006;-55
2023/07/16 09:38:02;;;;;;;5.70;4.40;;;;;;;39.54;25.94;100098.15;104332;277;118343;-53
2023/07/16 09:40:36;;;;;;;6.20;4.10;;;;;;;39.47;26.25;100092.67;104005;277;105442;-53
2023/07/16 09:43:10;;;;;;;4.20;3.90;;;;;;;39.41;26.43;100098.04;104275;276;113766;-54
2023/07/16 09:45:45;;;;;;;6.10;4.10;;;;;;;39.44;26.81;100095.16;104321;276;94867;-54
2023/07/16 09:48:20;;;;;;;8.00;4.50;;;;;;;39.50;26.55;100098.13;104348;276;96909;-54
2023/07/16 09:50:57;;;;;;;4.50;3.80;;;;;;;39.65;26.69;100098.58;104344;276;120806;-54
2023/07/16 09:53:34;;;;;;;4.50;4.10;;;;;;;39.41;25.83;100103.86;104786;277;106169;-53
2023/07/16 09:56:09;;;;;;;4.40;4.00;;;;;;;39.04;25.89;100094.27;104759;277;113589;-53
2023/07/16 09:58:44;;;;;;;5.40;4.10;;;;;;;39.03;26.41;100095.52;104292;276;93687;-53
2023/07/16 10:01:21;;;;;;;5.30;4.00;;;;;;;38.93;26.21;100090.03;104320;276;96263;-53
2023/07/16 10:03:55;;;;;;;4.30;3.90;;;;;;;38.92;26.75;100095.02;104305;276;120362;-53
2023/07/16 10:06:29;;;;;;;4.90;4.30;;;;;;;38.65;26.63;100090.31;104308;276;105289;-54
2023/07/16 10:09:04;;;;;;;4.20;3.80;;;;;;;38.62;26.78;100085.77;104739;277;115097;-54
2023/07/16 10:11:43;;;;;;;7.80;4.90;;;;;;;38.53;27.28;100091.55;104303;277;93817;-54
2023/07/16 10:14:27;;;;;;;4.70;4.30;;;;;;;38.25;27.57;100102.50;104340;277;97743;-54
2023/07/16 10:17:08;;;;;;;4.80;4.30;;;;;;;38.27;28.05;100096.25;104322;276;119535;-55
2023/07/16 10:19:56;;;;;;;5.10;4.60;;;;;;;38.15;28.31;100096.23;104773;277;104899;-55
2023/07/16 10:22:47;;;;;;;5.00;4.50;;;;;;;37.99;28.59;100098.99;104303;277;114380;-55
2023/07/16 10:25:29;;;;;;;4.80;4.30;;;;;;;37.93;28.93;100099.30;104302;277;92757;-55
2023/07/16 10:28:04;;;;;;;6.00;4.40;;;;;;;37.77;29.23;100093.71;104333;277;95987;-55
2023/07/16 10:30:39;;;;;;;5.20;4.60;;;;;;;37.52;29.64;100098.92;104330;277;119800;-55
2023/07/16 10:33:17;;;;;;;6.90;4.90;;;;;;;37.28;30.07;100097.20;104795;277;104532;-55
2023/07/16 10:35:51;;;;;;;5.70;4.70;;;;;;;37.15;29.85;100098.73;104313;277;114792;-54
2023/07/16 10:38:26;;;;;;;6.20;4.90;;;;;;;37.07;30.12;100095.36;104307;277;94496;-54
2023/07/16 10:41:00;;;;;;;7.20;5.50;;;;;;;37.01;30.47;100096.54;104330;277;98221;-54
2023/07/16 10:43:35;;;;;;;6.00;5.10;;;;;;;36.98;31.10;100097.92;104288;277;120738;-53
2023/07/16 10:46:11;;;;;;;6.00;5.40;;;;;;;37.09;31.44;100098.14;104320;277;104174;-53
2023/07/16 10:48:51;;;;;;;6.00;5.40;;;;;;;37.20;31.40;100097.37;104325;277;114570;-53
2023/07/16 10:51:30;;;;;;;6.60;5.50;;;;;;;37.28;31.57;100101.30;104310;277;93153;-55
2023/07/16 10:54:06;;;;;;;6.40;5.30;;;;;;;37.36;31.54;100099.20;104124;278;98323;-55
2023/07/16 10:56:41;;;;;;;5.70;5.10;;;;;;;37.45;31.32;100101.79;104298;277;120576;-53
2023/07/16 10:59:16;;;;;;;5.30;4.80;;;;;;;37.57;31.44;100097.64;104324;277;105017;-54
2023/07/16 11:01:51;;;;;;;6.60;4.70;;;;;;;37.75;31.64;100096.16;104763;277;114744;-55
2023/07/16 11:04:25;;;;;;;7.10;5.30;;;;;;;37.96;31.63;100099.20;104075;278;95902;-55
2023/07/16 11:06:59;;;;;;;5.60;4.80;;;;;;;38.07;31.42;100100.16;104329;277;98399;-55
2023/07/16 11:09:35;;;;;;;5.50;5.00;;;;;;;38.17;31.30;100096.91;104311;277;120953;-55
2023/07/16 11:12:16;;;;;;;5.00;4.60;;;;;;;38.28;31.33;100097.73;104782;277;104774;-53
2023/07/16 11:14:53;;;;;;;5.20;4.70;;;;;;;38.44;30.79;100090.37;104324;277;113700;-53
2023/07/16 11:17:35;;;;;;;6.90;4.80;;;;;;;38.36;30.45;100093.65;104324;277;93593;-53
2023/07/16 11:20:13;;;;;;;5.40;4.50;;;;;;;38.44;30.52;100096.42;104167;277;97884;-55
2023/07/16 11:22:52;;;;;;;4.70;4.10;;;;;;;38.49;30.77;100099.08;104102;277;119730;-55
2023/07/16 11:25:28;;;;;;;5.10;4.70;;;;;;;38.32;30.66;100109.80;104160;278;103571;-55
2023/07/16 11:28:11;;;;;;;5.50;5.00;;;;;;;38.23;30.72;100107.73;104293;277;114099;-55
2023/07/16 11:30:45;;;;;;;5.80;5.30;;;;;;;38.23;30.77;100113.20;104174;277;94105;-55
2023/07/16 11:33:19;;;;;;;6.00;5.20;;;;;;;38.49;30.71;100109.95;104756;277;98395;-55
2023/07/16 11:35:54;;;;;;;6.90;4.90;;;;;;;38.80;30.37;100116.60;104327;277;118760;-53
2023/07/16 11:38:28;;;;;;;5.80;5.00;;;;;;;38.89;30.17;100107.83;104778;277;105609;-53
2023/07/16 11:41:06;;;;;;;5.60;4.80;;;;;;;39.06;30.25;100104.20;104312;277;114934;-55
2023/07/16 11:43:42;;;;;;;8.40;5.20;;;;;;;39.18;30.31;100104.50;104302;277;94369;-55
2023/07/16 11:46:20;;;;;;;5.60;4.40;;;;;;;39.13;29.58;100111.31;104358;277;98665;-53
2023/07/16 11:48:55;;;;;;;6.60;5.10;;;;;;;39.04;29.65;100113.47;104318;277;120910;-53
2023/07/16 11:51:29;;;;;;;5.50;4.70;;;;;;;38.95;29.86;100115.06;104768;277;105966;-53
2023/07/16 11:54:03;;;;;;;7.10;5.50;;;;;;;38.60;30.13;100114.63;104771;277;114826;-53
2023/07/16 11:56:37;;;;;;;6.60;4.90;;;;;;;38.44;30.08;100118.60;104284;277;93945;-55
2023/07/16 11:59:12;;;;;;;5.60;5.00;;;;;;;38.34;30.05;100115.25;104328;277;96977;-55
2023/07/16 12:01:46;;;;;;;4.90;4.50;;;;;;;38.04;30.48;100121.88;104347;277;118836;-53